Molokai, HI

6:32 PM HST on January 23, 2017 (GMT -1000)
Ranchlands | | Change Station

Elev 171 ft 21.16 °N, 157.26 °W | Updated 11 seconds ago

Clear
Clear
73.2 °F
Feels Like 72 °F
N
1.1
Wind Variable Wind from ENE
Gusts 2.5 mph

Today
High -- | Low -- °F
--% Chance of Precip.
Yesterday
High -- | Low -- °F
Precip. -- in
Pressure 30.12 in
Visibility 10.0 miles
Clouds Clear
Heat Index 72 °F
Dew Point 69 °F
Humidity 86%
Rainfall 0.00 in
Snow Depth Not available.
7:07 AM 6:13 PM
Waning Crescent, 14% visible
METAR PHMK 240354Z 04006KT 10SM CLR 23/18 A3011 RMK AO2 SLP198 T02330183
Pressure 30.12 in
Visibility 10.0 miles
Clouds Clear
Heat Index 72 °F
Dew Point 69 °F
Humidity 86%
Rainfall 0.00 in
Snow Depth Not available.
7:07 AM 6:13 PM
Waning Crescent, 14% visible
METAR PHMK 240354Z 04006KT 10SM CLR 23/18 A3011 RMK AO2 SLP198 T02330183

Get Your Daily Forecast Email!

Thanks for signing up!

Be on the lookout for a verification email in your inbox.

You'll start receiving the daily forecast at 8 AM.

×

10-Day Weather Forecast

Almanac

Astronomy

Jan. 23, 2017 Rise Set
Actual Time
Civil Twilight
Nautical Twilight
Astronomical Twilight
Moon
Length of Visible Light
Length of Day
Tomorrow will be .
, % of the Moon is Illuminated

Today's Extremes

State Highs State Lows

Community

WunderPhotos

Upload Photos

1,962,540 photos uploaded!

WunderBlog® & News

Nearby

Air Quality

  Air Quality AQ Index Pollutant
Not available.

Snow Depth

Station Depth Elevation

Earthquake Activity

City Distance Mag. Time & Date
Minimum magnitude displayed is 2.5.

Coastal Water Temperatures

Place Temperature

Stations

Nearby Weather Stations

Station Location Temp. Windchill Dew Point Humidity Wind Precip. Elev Updated Type
                   

Watches & Warnings

There are currently no watches in effect.